sensor_id;sensor_type;location;lat;lon;timestamp;temperature;humidity
5940;DHT22;2995;-31.998;115.906;2023-01-01T00:00:15;24.40;99.90
5940;DHT22;2995;-31.998;115.906;2023-01-01T00:02:49;24.20;99.90
5940;DHT22;2995;-31.998;115.906;2023-01-01T00:05:20;23.80;99.90
5940;DHT22;2995;-31.998;115.906;2023-01-01T00:07:51;24.30;99.90
5940;DHT22;2995;-31.998;115.906;2023-01-01T00:10:23;24.40;99.90
5940;DHT22;2995;-31.998;115.906;2023-01-01T00:13:00;24.50;99.90
5940;DHT22;2995;-31.998;115.906;2023-01-01T00:15:31;24.90;99.90
5940;DHT22;2995;-31.998;115.906;2023-01-01T00:18:05;25.20;99.90
5940;DHT22;2995;-31.998;115.906;2023-01-01T00:20:36;24.90;99.90
5940;DHT22;2995;-31.998;115.906;2023-01-01T00:23:07;25.40;99.90
5940;DHT22;2995;-31.998;115.906;2023-01-01T00:25:40;25.80;99.90
5940;DHT22;2995;-31.998;115.906;2023-01-01T00:28:12;26.00;99.90
5940;DHT22;2995;-31.998;115.906;2023-01-01T00:30:43;25.90;99.90
5940;DHT22;2995;-31.998;115.906;2023-01-01T00:33:16;25.60;99.90
5940;DHT22;2995;-31.998;115.906;2023-01-01T00:35:47;25.10;99.90
5940;DHT22;2995;-31.998;115.906;2023-01-01T00:38:18;25.00;99.90
5940;DHT22;2995;-31.998;115.906;2023-01-01T00:40:49;25.30;99.90
5940;DHT22;2995;-31.998;115.906;2023-01-01T00:43:21;26.00;99.90
5940;DHT22;2995;-31.998;115.906;2023-01-01T00:45:52;26.50;99.90
5940;DHT22;2995;-31.998;115.906;2023-01-01T00:48:25;26.90;99.90
5940;DHT22;2995;-31.998;115.906;2023-01-01T00:50:56;27.60;99.90
5940;DHT22;2995;-31.998;115.906;2023-01-01T00:53:28;27.60;99.90
5940;DHT22;2995;-31.998;115.906;2023-01-01T00:55:59;26.50;99.90
5940;DHT22;2995;-31.998;115.906;2023-01-01T00:58:30;27.60;99.90
5940;DHT22;2995;-31.998;115.906;2023-01-01T01:01:01;27.50;99.90
5940;DHT22;2995;-31.998;115.906;2023-01-01T01:03:35;28.00;99.90
5940;DHT22;2995;-31.998;115.906;2023-01-01T01:06:11;27.80;99.90
5940;DHT22;2995;-31.998;115.906;2023-01-01T01:08:43;26.70;99.90
5940;DHT22;2995;-31.998;115.906;2023-01-01T01:11:16;27.20;99.90
5940;DHT22;2995;-31.998;115.906;2023-01-01T01:13:49;28.00;99.90
5940;DHT22;2995;-31.998;115.906;2023-01-01T01:16:23;28.50;99.90
5940;DHT22;2995;-31.998;115.906;2023-01-01T01:18:58;28.60;99.90
5940;DHT22;2995;-31.998;115.906;2023-01-01T01:21:31;29.40;99.90
5940;DHT22;2995;-31.998;115.906;2023-01-01T01:24:03;30.00;99.90
5940;DHT22;2995;-31.998;115.906;2023-01-01T01:26:35;29.50;99.90
5940;DHT22;2995;-31.998;115.906;2023-01-01T01:29:06;28.90;99.90
5940;DHT22;2995;-31.998;115.906;2023-01-01T01:31:37;28.50;99.90
5940;DHT22;2995;-31.998;115.906;2023-01-01T01:34:10;27.80;99.90
5940;DHT22;2995;-31.998;115.906;2023-01-01T01:36:42;28.20;99.90
5940;DHT22;2995;-31.998;115.906;2023-01-01T01:39:14;27.80;99.90
5940;DHT22;2995;-31.998;115.906;2023-01-01T01:41:45;29.00;99.90
5940;DHT22;2995;-31.998;115.906;2023-01-01T01:47:33;29.20;99.90
5940;DHT22;2995;-31.998;115.906;2023-01-01T01:50:09;29.00;99.90
5940;DHT22;2995;-31.998;115.906;2023-01-01T01:52:46;29.20;99.90
5940;DHT22;2995;-31.998;115.906;2023-01-01T01:55:19;27.60;99.90
5940;DHT22;2995;-31.998;115.906;2023-01-01T01:57:51;27.50;99.90
5940;DHT22;2995;-31.998;115.906;2023-01-01T02:00:22;28.10;99.90
5940;DHT22;2995;-31.998;115.906;2023-01-01T02:02:55;28.40;99.90
5940;DHT22;2995;-31.998;115.906;2023-01-01T02:05:31;28.50;99.90
5940;DHT22;2995;-31.998;115.906;2023-01-01T02:08:03;27.90;99.90
5940;DHT22;2995;-31.998;115.906;2023-01-01T02:10:35;27.90;99.90
5940;DHT22;2995;-31.998;115.906;2023-01-01T02:13:06;27.90;99.90
5940;DHT22;2995;-31.998;115.906;2023-01-01T02:15:41;27.00;99.90
5940;DHT22;2995;-31.998;115.906;2023-01-01T02:18:15;26.80;99.90
5940;DHT22;2995;-31.998;115.906;2023-01-01T02:20:53;26.50;99.90
5940;DHT22;2995;-31.998;115.906;2023-01-01T02:26:49;27.80;99.90
5940;DHT22;2995;-31.998;115.906;2023-01-01T02:29:33;28.10;99.90
5940;DHT22;2995;-31.998;115.906;2023-01-01T02:32:10;28.00;99.90
5940;DHT22;2995;-31.998;115.906;2023-01-01T02:34:45;27.80;99.90
5940;DHT22;2995;-31.998;115.906;2023-01-01T02:37:19;28.20;99.90
5940;DHT22;2995;-31.998;115.906;2023-01-01T02:39:54;28.30;99.90
5940;DHT22;2995;-31.998;115.906;2023-01-01T02:42:28;28.10;99.90
5940;DHT22;2995;-31.998;115.906;2023-01-01T02:45:01;27.40;99.90
5940;DHT22;2995;-31.998;115.906;2023-01-01T02:47:33;27.60;99.90
5940;DHT22;2995;-31.998;115.906;2023-01-01T02:50:11;27.20;99.90
5940;DHT22;2995;-31.998;115.906;2023-01-01T02:53:10;27.60;99.90
5940;DHT22;2995;-31.998;115.906;2023-01-01T02:55:56;27.00;99.90
5940;DHT22;2995;-31.998;115.906;2023-01-01T02:58:37;27.00;99.90
5940;DHT22;2995;-31.998;115.906;2023-01-01T03:01:32;27.80;99.90
5940;DHT22;2995;-31.998;115.906;2023-01-01T03:04:06;28.00;99.90
5940;DHT22;2995;-31.998;115.906;2023-01-01T03:06:43;27.90;99.90
5940;DHT22;2995;-31.998;115.906;2023-01-01T03:09:22;28.20;99.90
5940;DHT22;2995;-31.998;115.906;2023-01-01T03:12:05;28.00;99.90
5940;DHT22;2995;-31.998;115.906;2023-01-01T03:14:43;27.60;99.90
5940;DHT22;2995;-31.998;115.906;2023-01-01T03:17:26;27.60;99.90
5940;DHT22;2995;-31.998;115.906;2023-01-01T03:20:03;27.50;99.90
5940;DHT22;2995;-31.998;115.906;2023-01-01T03:22:37;27.80;99.90
5940;DHT22;2995;-31.998;115.906;2023-01-01T03:25:11;28.10;99.90
5940;DHT22;2995;-31.998;115.906;2023-01-01T03:27:45;28.40;99.90
5940;DHT22;2995;-31.998;115.906;2023-01-01T03:30:18;28.70;99.90
5940;DHT22;2995;-31.998;115.906;2023-01-01T03:32:55;28.80;99.90
5940;DHT22;2995;-31.998;115.906;2023-01-01T03:35:36;28.30;99.90
5940;DHT22;2995;-31.998;115.906;2023-01-01T03:38:12;28.20;99.90
5940;DHT22;2995;-31.998;115.906;2023-01-01T03:40:46;28.30;99.90
5940;DHT22;2995;-31.998;115.906;2023-01-01T03:43:30;27.90;99.90
5940;DHT22;2995;-31.998;115.906;2023-01-01T03:46:05;28.30;99.90
5940;DHT22;2995;-31.998;115.906;2023-01-01T03:48:43;28.00;99.90
5940;DHT22;2995;-31.998;115.906;2023-01-01T03:54:21;28.50;99.90
5940;DHT22;2995;-31.998;115.906;2023-01-01T03:57:00;28.70;99.90
5940;DHT22;2995;-31.998;115.906;2023-01-01T03:59:38;29.00;99.90
5940;DHT22;2995;-31.998;115.906;2023-01-01T04:02:12;29.20;99.90
5940;DHT22;2995;-31.998;115.906;2023-01-01T04:04:46;28.80;99.90
5940;DHT22;2995;-31.998;115.906;2023-01-01T04:07:18;28.70;99.90
5940;DHT22;2995;-31.998;115.906;2023-01-01T04:09:50;28.50;99.90
5940;DHT22;2995;-31.998;115.906;2023-01-01T04:12:23;28.30;99.90
5940;DHT22;2995;-31.998;115.906;2023-01-01T04:14:54;28.20;99.90
5940;DHT22;2995;-31.998;115.906;2023-01-01T04:17:25;28.50;99.90
5940;DHT22;2995;-31.998;115.906;2023-01-01T04:19:59;29.00;99.90
5940;DHT22;2995;-31.998;115.906;2023-01-01T04:22:30;29.10;99.90
5940;DHT22;2995;-31.998;115.906;2023-01-01T04:25:01;28.50;99.90
5940;DHT22;2995;-31.998;115.906;2023-01-01T04:27:32;28.50;99.90
5940;DHT22;2995;-31.998;115.906;2023-01-01T04:30:05;28.10;99.90
5940;DHT22;2995;-31.998;115.906;2023-01-01T04:32:36;28.50;99.90
5940;DHT22;2995;-31.998;115.906;2023-01-01T04:35:11;28.60;99.90
5940;DHT22;2995;-31.998;115.906;2023-01-01T04:37:43;28.90;99.90
5940;DHT22;2995;-31.998;115.906;2023-01-01T04:40:14;29.10;99.90
5940;DHT22;2995;-31.998;115.906;2023-01-01T04:42:46;29.10;99.90
5940;DHT22;2995;-31.998;115.906;2023-01-01T04:45:17;29.20;99.90
5940;DHT22;2995;-31.998;115.906;2023-01-01T04:47:48;29.50;99.90
5940;DHT22;2995;-31.998;115.906;2023-01-01T04:50:22;29.50;99.90
5940;DHT22;2995;-31.998;115.906;2023-01-01T04:52:53;29.20;99.90
5940;DHT22;2995;-31.998;115.906;2023-01-01T04:55:24;28.90;99.90
5940;DHT22;2995;-31.998;115.906;2023-01-01T04:57:56;29.00;99.90
5940;DHT22;2995;-31.998;115.906;2023-01-01T05:00:27;29.20;99.90
5940;DHT22;2995;-31.998;115.906;2023-01-01T05:02:58;29.40;99.90
5940;DHT22;2995;-31.998;115.906;2023-01-01T05:05:32;29.40;99.90
5940;DHT22;2995;-31.998;115.906;2023-01-01T05:08:03;29.20;99.90
5940;DHT22;2995;-31.998;115.906;2023-01-01T05:10:34;29.40;99.90
5940;DHT22;2995;-31.998;115.906;2023-01-01T05:13:08;29.20;99.90
5940;DHT22;2995;-31.998;115.906;2023-01-01T05:15:39;29.10;99.90
5940;DHT22;2995;-31.998;115.906;2023-01-01T05:18:10;29.30;99.90
5940;DHT22;2995;-31.998;115.906;2023-01-01T05:20:46;29.30;99.90
5940;DHT22;2995;-31.998;115.906;2023-01-01T05:23:17;29.00;99.90
5940;DHT22;2995;-31.998;115.906;2023-01-01T05:25:48;28.80;99.90
5940;DHT22;2995;-31.998;115.906;2023-01-01T05:28:22;28.80;99.90
5940;DHT22;2995;-31.998;115.906;2023-01-01T05:30:54;29.20;99.90
5940;DHT22;2995;-31.998;115.906;2023-01-01T05:33:26;28.90;99.90
5940;DHT22;2995;-31.998;115.906;2023-01-01T05:36:00;29.10;99.90
5940;DHT22;2995;-31.998;115.906;2023-01-01T05:38:32;29.30;99.90
5940;DHT22;2995;-31.998;115.906;2023-01-01T05:41:06;29.30;99.90
5940;DHT22;2995;-31.998;115.906;2023-01-01T05:43:38;29.10;99.90
5940;DHT22;2995;-31.998;115.906;2023-01-01T05:46:11;28.60;99.90
5940;DHT22;2995;-31.998;115.906;2023-01-01T05:48:43;28.70;99.90
5940;DHT22;2995;-31.998;115.906;2023-01-01T05:51:18;28.90;99.90
5940;DHT22;2995;-31.998;115.906;2023-01-01T05:53:53;28.80;99.90
5940;DHT22;2995;-31.998;115.906;2023-01-01T05:56:25;28.50;99.90
5940;DHT22;2995;-31.998;115.906;2023-01-01T05:58:56;28.40;99.90
5940;DHT22;2995;-31.998;115.906;2023-01-01T06:01:28;28.50;99.90
5940;DHT22;2995;-31.998;115.906;2023-01-01T06:04:01;28.80;99.90
5940;DHT22;2995;-31.998;115.906;2023-01-01T06:06:38;28.70;99.90
5940;DHT22;2995;-31.998;115.906;2023-01-01T06:09:10;28.50;99.90
5940;DHT22;2995;-31.998;115.906;2023-01-01T06:11:41;28.30;99.90
5940;DHT22;2995;-31.998;115.906;2023-01-01T06:14:13;28.30;99.90
5940;DHT22;2995;-31.998;115.906;2023-01-01T06:16:44;28.10;99.90
5940;DHT22;2995;-31.998;115.906;2023-01-01T06:19:15;27.80;99.90
5940;DHT22;2995;-31.998;115.906;2023-01-01T06:21:48;27.50;99.90
5940;DHT22;2995;-31.998;115.906;2023-01-01T06:24:20;27.80;99.90
5940;DHT22;2995;-31.998;115.906;2023-01-01T06:26:54;27.80;99.90
5940;DHT22;2995;-31.998;115.906;2023-01-01T06:29:25;27.80;99.90
5940;DHT22;2995;-31.998;115.906;2023-01-01T06:31:56;27.90;99.90
5940;DHT22;2995;-31.998;115.906;2023-01-01T06:34:31;28.10;99.90
5940;DHT22;2995;-31.998;115.906;2023-01-01T06:37:04;28.00;99.90
5940;DHT22;2995;-31.998;115.906;2023-01-01T06:39:39;27.80;99.90
5940;DHT22;2995;-31.998;115.906;2023-01-01T06:42:10;27.80;99.90
5940;DHT22;2995;-31.998;115.906;2023-01-01T06:44:42;27.60;99.90
5940;DHT22;2995;-31.998;115.906;2023-01-01T06:47:13;27.70;99.90
5940;DHT22;2995;-31.998;115.906;2023-01-01T06:49:44;27.70;99.90
5940;DHT22;2995;-31.998;115.906;2023-01-01T06:52:18;27.70;99.90
5940;DHT22;2995;-31.998;115.906;2023-01-01T06:54:49;27.90;99.90
5940;DHT22;2995;-31.998;115.906;2023-01-01T06:57:20;27.80;99.90
5940;DHT22;2995;-31.998;115.906;2023-01-01T06:59:51;27.80;99.90
5940;DHT22;2995;-31.998;115.906;2023-01-01T07:02:23;27.70;99.90
5940;DHT22;2995;-31.998;115.906;2023-01-01T07:04:54;27.70;99.90
5940;DHT22;2995;-31.998;115.906;2023-01-01T07:07:27;27.40;99.90
5940;DHT22;2995;-31.998;115.906;2023-01-01T07:09:58;27.60;99.90
5940;DHT22;2995;-31.998;115.906;2023-01-01T07:12:30;27.60;99.90
5940;DHT22;2995;-31.998;115.906;2023-01-01T07:15:01;27.30;99.90
5940;DHT22;2995;-31.998;115.906;2023-01-01T07:17:32;27.50;99.90
5940;DHT22;2995;-31.998;115.906;2023-01-01T07:20:04;27.50;99.90
5940;DHT22;2995;-31.998;115.906;2023-01-01T07:22:38;27.30;99.90
5940;DHT22;2995;-31.998;115.906;2023-01-01T07:25:11;27.30;99.90
5940;DHT22;2995;-31.998;115.906;2023-01-01T07:27:44;27.20;99.90
5940;DHT22;2995;-31.998;115.906;2023-01-01T07:30:15;27.20;99.90
5940;DHT22;2995;-31.998;115.906;2023-01-01T07:32:55;27.20;99.90
5940;DHT22;2995;-31.998;115.906;2023-01-01T07:35:26;27.30;99.90
5940;DHT22;2995;-31.998;115.906;2023-01-01T07:37:59;27.40;99.90
5940;DHT22;2995;-31.998;115.906;2023-01-01T07:40:33;27.40;99.90
5940;DHT22;2995;-31.998;115.906;2023-01-01T07:43:05;27.30;99.90
5940;DHT22;2995;-31.998;115.906;2023-01-01T07:45:36;27.00;99.90
5940;DHT22;2995;-31.998;115.906;2023-01-01T07:48:10;27.20;99.90
5940;DHT22;2995;-31.998;115.906;2023-01-01T07:50:43;27.00;99.90
5940;DHT22;2995;-31.998;115.906;2023-01-01T07:53:16;27.00;99.90
5940;DHT22;2995;-31.998;115.906;2023-01-01T07:55:48;27.20;99.90
5940;DHT22;2995;-31.998;115.906;2023-01-01T07:58:19;27.00;99.90
5940;DHT22;2995;-31.998;115.906;2023-01-01T08:00:51;27.00;99.90
5940;DHT22;2995;-31.998;115.906;2023-01-01T08:03:22;27.20;99.90
5940;DHT22;2995;-31.998;115.906;2023-01-01T08:05:54;27.00;99.90
5940;DHT22;2995;-31.998;115.906;2023-01-01T08:08:27;26.90;99.90
5940;DHT22;2995;-31.998;115.906;2023-01-01T08:11:00;26.80;99.90
5940;DHT22;2995;-31.998;115.906;2023-01-01T08:13:32;26.60;99.90
5940;DHT22;2995;-31.998;115.906;2023-01-01T08:16:03;26.50;99.90
5940;DHT22;2995;-31.998;115.906;2023-01-01T08:18:35;26.40;99.90
5940;DHT22;2995;-31.998;115.906;2023-01-01T08:21:06;26.50;99.90
5940;DHT22;2995;-31.998;115.906;2023-01-01T08:23:40;26.50;99.90
5940;DHT22;2995;-31.998;115.906;2023-01-01T08:26:14;26.40;99.90
5940;DHT22;2995;-31.998;115.906;2023-01-01T08:28:45;26.20;99.90
5940;DHT22;2995;-31.998;115.906;2023-01-01T08:31:19;26.30;99.90
5940;DHT22;2995;-31.998;115.906;2023-01-01T08:33:50;26.30;99.90
5940;DHT22;2995;-31.998;115.906;2023-01-01T08:36:22;26.40;99.90
5940;DHT22;2995;-31.998;115.906;2023-01-01T08:38:55;26.40;99.90
5940;DHT22;2995;-31.998;115.906;2023-01-01T08:41:26;26.60;99.90
5940;DHT22;2995;-31.998;115.906;2023-01-01T08:43:57;26.60;99.90
5940;DHT22;2995;-31.998;115.906;2023-01-01T08:46:29;26.30;99.90
5940;DHT22;2995;-31.998;115.906;2023-01-01T08:49:00;26.30;99.90
5940;DHT22;2995;-31.998;115.906;2023-01-01T08:51:33;26.40;99.90
5940;DHT22;2995;-31.998;115.906;2023-01-01T08:54:07;26.40;99.90
5940;DHT22;2995;-31.998;115.906;2023-01-01T08:56:42;26.40;99.90
5940;DHT22;2995;-31.998;115.906;2023-01-01T08:59:13;26.30;99.90
5940;DHT22;2995;-31.998;115.906;2023-01-01T09:01:45;26.10;99.90
5940;DHT22;2995;-31.998;115.906;2023-01-01T09:04:16;26.10;99.90
5940;DHT22;2995;-31.998;115.906;2023-01-01T09:06:48;26.00;99.90
5940;DHT22;2995;-31.998;115.906;2023-01-01T09:09:21;26.00;99.90
5940;DHT22;2995;-31.998;115.906;2023-01-01T09:11:53;26.00;99.90
5940;DHT22;2995;-31.998;115.906;2023-01-01T09:14:31;26.10;99.90
5940;DHT22;2995;-31.998;115.906;2023-01-01T09:17:03;26.10;99.90
5940;DHT22;2995;-31.998;115.906;2023-01-01T09:19:34;26.10;99.90
5940;DHT22;2995;-31.998;115.906;2023-01-01T09:22:07;26.00;99.90
5940;DHT22;2995;-31.998;115.906;2023-01-01T09:24:41;25.90;99.90
5940;DHT22;2995;-31.998;115.906;2023-01-01T09:27:12;26.00;99.90
5940;DHT22;2995;-31.998;115.906;2023-01-01T09:29:43;25.90;99.90
5940;DHT22;2995;-31.998;115.906;2023-01-01T09:32:15;25.90;99.90
5940;DHT22;2995;-31.998;115.906;2023-01-01T09:34:50;25.80;99.90
5940;DHT22;2995;-31.998;115.906;2023-01-01T09:37:24;25.80;99.90
5940;DHT22;2995;-31.998;115.906;2023-01-01T09:39:57;25.70;99.90
5940;DHT22;2995;-31.998;115.906;2023-01-01T09:42:35;25.70;99.90
5940;DHT22;2995;-31.998;115.906;2023-01-01T09:45:22;25.60;99.90
5940;DHT22;2995;-31.998;115.906;2023-01-01T09:47:55;25.40;99.90
5940;DHT22;2995;-31.998;115.906;2023-01-01T09:50:38;25.50;99.90
5940;DHT22;2995;-31.998;115.906;2023-01-01T09:53:14;25.30;99.90
5940;DHT22;2995;-31.998;115.906;2023-01-01T09:55:52;25.30;99.90
5940;DHT22;2995;-31.998;115.906;2023-01-01T09:58:25;25.10;99.90
5940;DHT22;2995;-31.998;115.906;2023-01-01T10:01:05;25.10;99.90
5940;DHT22;2995;-31.998;115.906;2023-01-01T10:03:43;25.00;99.90
5940;DHT22;2995;-31.998;115.906;2023-01-01T10:06:24;25.00;99.90
5940;DHT22;2995;-31.998;115.906;2023-01-01T10:09:08;25.10;99.90
5940;DHT22;2995;-31.998;115.906;2023-01-01T10:11:53;25.00;99.90
5940;DHT22;2995;-31.998;115.906;2023-01-01T10:14:29;25.00;99.90
5940;DHT22;2995;-31.998;115.906;2023-01-01T10:17:03;25.00;99.90
5940;DHT22;2995;-31.998;115.906;2023-01-01T10:19:40;25.10;99.90
5940;DHT22;2995;-31.998;115.906;2023-01-01T10:22:14;25.00;99.90
5940;DHT22;2995;-31.998;115.906;2023-01-01T10:24:48;25.00;99.90
5940;DHT22;2995;-31.998;115.906;2023-01-01T10:27:30;24.90;99.90
5940;DHT22;2995;-31.998;115.906;2023-01-01T10:30:08;24.80;99.90
5940;DHT22;2995;-31.998;115.906;2023-01-01T10:32:48;24.60;99.90
5940;DHT22;2995;-31.998;115.906;2023-01-01T10:35:23;24.50;99.90
5940;DHT22;2995;-31.998;115.906;2023-01-01T10:37:58;24.40;99.90
5940;DHT22;2995;-31.998;115.906;2023-01-01T10:40:33;24.40;99.90
5940;DHT22;2995;-31.998;115.906;2023-01-01T10:43:10;24.30;99.90
5940;DHT22;2995;-31.998;115.906;2023-01-01T10:45:44;24.20;99.90
5940;DHT22;2995;-31.998;115.906;2023-01-01T10:48:22;24.20;99.90
5940;DHT22;2995;-31.998;115.906;2023-01-01T10:50:58;24.20;99.90
5940;DHT22;2995;-31.998;115.906;2023-01-01T10:53:31;24.10;99.90
5940;DHT22;2995;-31.998;115.906;2023-01-01T10:56:06;24.00;99.90
5940;DHT22;2995;-31.998;115.906;2023-01-01T10:58:47;24.00;99.90
5940;DHT22;2995;-31.998;115.906;2023-01-01T11:01:23;23.90;99.90
5940;DHT22;2995;-31.998;115.906;2023-01-01T11:03:57;23.90;99.90
5940;DHT22;2995;-31.998;115.906;2023-01-01T11:06:32;23.80;99.90
5940;DHT22;2995;-31.998;115.906;2023-01-01T11:09:05;23.80;99.90
5940;DHT22;2995;-31.998;115.906;2023-01-01T11:11:40;23.70;99.90
5940;DHT22;2995;-31.998;115.906;2023-01-01T11:14:20;23.80;99.90
5940;DHT22;2995;-31.998;115.906;2023-01-01T11:16:53;23.70;99.90
5940;DHT22;2995;-31.998;115.906;2023-01-01T11:19:29;23.60;99.90
5940;DHT22;2995;-31.998;115.906;2023-01-01T11:22:03;23.50;99.90
5940;DHT22;2995;-31.998;115.906;2023-01-01T11:24:35;23.50;99.90
5940;DHT22;2995;-31.998;115.906;2023-01-01T11:27:19;23.50;99.90
5940;DHT22;2995;-31.998;115.906;2023-01-01T11:30:18;23.50;99.90
5940;DHT22;2995;-31.998;115.906;2023-01-01T11:32:52;23.50;99.90
5940;DHT22;2995;-31.998;115.906;2023-01-01T11:35:27;23.30;99.90
5940;DHT22;2995;-31.998;115.906;2023-01-01T11:37:59;23.30;99.90
5940;DHT22;2995;-31.998;115.906;2023-01-01T11:40:35;23.30;99.90
5940;DHT22;2995;-31.998;115.906;2023-01-01T11:43:07;23.20;99.90
5940;DHT22;2995;-31.998;115.906;2023-01-01T11:45:42;23.10;99.90
5940;DHT22;2995;-31.998;115.906;2023-01-01T11:48:15;23.10;99.90
5940;DHT22;2995;-31.998;115.906;2023-01-01T11:50:51;23.20;99.90
5940;DHT22;2995;-31.998;115.906;2023-01-01T11:53:29;23.10;99.90
5940;DHT22;2995;-31.998;115.906;2023-01-01T11:56:05;23.10;99.90
5940;DHT22;2995;-31.998;115.906;2023-01-01T11:58:45;23.00;99.90
5940;DHT22;2995;-31.998;115.906;2023-01-01T12:01:25;23.00;99.90
5940;DHT22;2995;-31.998;115.906;2023-01-01T12:04:00;22.90;99.90
5940;DHT22;2995;-31.998;115.906;2023-01-01T12:06:40;22.90;99.90
5940;DHT22;2995;-31.998;115.906;2023-01-01T12:09:16;22.90;99.90
5940;DHT22;2995;-31.998;115.906;2023-01-01T12:11:59;22.90;99.90
5940;DHT22;2995;-31.998;115.906;2023-01-01T12:14:38;22.90;99.90
5940;DHT22;2995;-31.998;115.906;2023-01-01T12:17:19;22.90;99.90
5940;DHT22;2995;-31.998;115.906;2023-01-01T12:20:00;22.80;99.90
5940;DHT22;2995;-31.998;115.906;2023-01-01T12:22:34;22.90;99.90
5940;DHT22;2995;-31.998;115.906;2023-01-01T12:25:08;22.80;99.90
5940;DHT22;2995;-31.998;115.906;2023-01-01T12:27:54;22.70;99.90
5940;DHT22;2995;-31.998;115.906;2023-01-01T12:30:30;22.60;99.90
5940;DHT22;2995;-31.998;115.906;2023-01-01T12:33:19;22.70;99.90
5940;DHT22;2995;-31.998;115.906;2023-01-01T12:36:02;22.50;99.90
5940;DHT22;2995;-31.998;115.906;2023-01-01T12:39:04;22.40;99.90
5940;DHT22;2995;-31.998;115.906;2023-01-01T12:41:43;22.50;99.90
5940;DHT22;2995;-31.998;115.906;2023-01-01T12:44:23;22.40;99.90
5940;DHT22;2995;-31.998;115.906;2023-01-01T12:47:04;22.40;99.90
5940;DHT22;2995;-31.998;115.906;2023-01-01T12:49:57;22.30;99.90
5940;DHT22;2995;-31.998;115.906;2023-01-01T12:52:41;22.30;99.90
5940;DHT22;2995;-31.998;115.906;2023-01-01T12:55:48;22.30;99.90
5940;DHT22;2995;-31.998;115.906;2023-01-01T12:58:28;22.20;99.90
5940;DHT22;2995;-31.998;115.906;2023-01-01T13:01:05;22.20;99.90
5940;DHT22;2995;-31.998;115.906;2023-01-01T13:03:46;22.20;99.90
5940;DHT22;2995;-31.998;115.906;2023-01-01T13:06:23;22.10;99.90
5940;DHT22;2995;-31.998;115.906;2023-01-01T13:09:01;22.00;99.90
5940;DHT22;2995;-31.998;115.906;2023-01-01T13:11:36;22.00;99.90
5940;DHT22;2995;-31.998;115.906;2023-01-01T13:14:08;22.10;99.90
5940;DHT22;2995;-31.998;115.906;2023-01-01T13:16:41;21.90;99.90
5940;DHT22;2995;-31.998;115.906;2023-01-01T13:19:25;21.90;99.90
5940;DHT22;2995;-31.998;115.906;2023-01-01T13:21:59;21.80;99.90
5940;DHT22;2995;-31.998;115.906;2023-01-01T13:25:04;21.70;99.90
5940;DHT22;2995;-31.998;115.906;2023-01-01T13:28:03;21.70;99.90
5940;DHT22;2995;-31.998;115.906;2023-01-01T13:30:49;21.70;99.90
5940;DHT22;2995;-31.998;115.906;2023-01-01T13:33:22;21.60;99.90
5940;DHT22;2995;-31.998;115.906;2023-01-01T13:36:31;21.70;99.90
5940;DHT22;2995;-31.998;115.906;2023-01-01T13:39:05;21.60;99.90
5940;DHT22;2995;-31.998;115.906;2023-01-01T13:50:02;21.40;99.90
5940;DHT22;2995;-31.998;115.906;2023-01-01T13:52:57;21.30;99.90
5940;DHT22;2995;-31.998;115.906;2023-01-01T13:58:58;21.30;99.90
5940;DHT22;2995;-31.998;115.906;2023-01-01T14:04:23;21.30;99.90
5940;DHT22;2995;-31.998;115.906;2023-01-01T14:06:59;21.30;99.90
5940;DHT22;2995;-31.998;115.906;2023-01-01T14:09:30;21.30;99.90
5940;DHT22;2995;-31.998;115.906;2023-01-01T14:12:16;21.30;99.90
5940;DHT22;2995;-31.998;115.906;2023-01-01T14:14:48;21.20;99.90
5940;DHT22;2995;-31.998;115.906;2023-01-01T14:22:21;21.00;99.90
5940;DHT22;2995;-31.998;115.906;2023-01-01T14:24:53;21.00;99.90
5940;DHT22;2995;-31.998;115.906;2023-01-01T14:27:27;21.00;99.90
5940;DHT22;2995;-31.998;115.906;2023-01-01T14:29:59;21.00;99.90
5940;DHT22;2995;-31.998;115.906;2023-01-01T14:32:31;21.10;99.90
5940;DHT22;2995;-31.998;115.906;2023-01-01T14:35:02;21.00;99.90
5940;DHT22;2995;-31.998;115.906;2023-01-01T14:37:33;20.80;99.90
5940;DHT22;2995;-31.998;115.906;2023-01-01T14:40:16;21.00;99.90
5940;DHT22;2995;-31.998;115.906;2023-01-01T14:42:59;20.90;99.90
5940;DHT22;2995;-31.998;115.906;2023-01-01T14:45:34;20.90;99.90
5940;DHT22;2995;-31.998;115.906;2023-01-01T14:48:10;20.80;99.90
5940;DHT22;2995;-31.998;115.906;2023-01-01T14:50:47;20.80;99.90
5940;DHT22;2995;-31.998;115.906;2023-01-01T14:53:22;20.70;99.90
5940;DHT22;2995;-31.998;115.906;2023-01-01T14:55:55;20.70;99.90
5940;DHT22;2995;-31.998;115.906;2023-01-01T14:58:29;20.70;99.90
5940;DHT22;2995;-31.998;115.906;2023-01-01T15:01:15;20.60;99.90
5940;DHT22;2995;-31.998;115.906;2023-01-01T15:03:56;20.70;99.90
5940;DHT22;2995;-31.998;115.906;2023-01-01T15:06:28;20.60;99.90
5940;DHT22;2995;-31.998;115.906;2023-01-01T15:09:00;20.50;99.90
5940;DHT22;2995;-31.998;115.906;2023-01-01T15:11:31;20.60;99.90
5940;DHT22;2995;-31.998;115.906;2023-01-01T15:14:05;20.50;99.90
5940;DHT22;2995;-31.998;115.906;2023-01-01T15:16:36;20.50;99.90
5940;DHT22;2995;-31.998;115.906;2023-01-01T15:19:17;20.60;99.90
5940;DHT22;2995;-31.998;115.906;2023-01-01T15:21:48;20.40;99.90
5940;DHT22;2995;-31.998;115.906;2023-01-01T15:24:20;20.40;99.90
5940;DHT22;2995;-31.998;115.906;2023-01-01T15:26:54;20.40;99.90
5940;DHT22;2995;-31.998;115.906;2023-01-01T15:29:30;20.50;99.90
5940;DHT22;2995;-31.998;115.906;2023-01-01T15:32:02;20.50;99.90
5940;DHT22;2995;-31.998;115.906;2023-01-01T15:34:36;20.40;99.90
5940;DHT22;2995;-31.998;115.906;2023-01-01T15:37:14;20.40;99.90
5940;DHT22;2995;-31.998;115.906;2023-01-01T15:39:47;20.30;99.90
5940;DHT22;2995;-31.998;115.906;2023-01-01T15:42:32;20.30;99.90
5940;DHT22;2995;-31.998;115.906;2023-01-01T15:45:20;20.30;99.90
5940;DHT22;2995;-31.998;115.906;2023-01-01T15:47:52;20.10;99.90
5940;DHT22;2995;-31.998;115.906;2023-01-01T15:50:25;20.20;99.90
5940;DHT22;2995;-31.998;115.906;2023-01-01T15:52:59;20.00;99.90
5940;DHT22;2995;-31.998;115.906;2023-01-01T15:55:34;20.00;99.90
5940;DHT22;2995;-31.998;115.906;2023-01-01T15:58:12;20.00;99.90
5940;DHT22;2995;-31.998;115.906;2023-01-01T16:00:55;20.10;99.90
5940;DHT22;2995;-31.998;115.906;2023-01-01T16:03:27;20.20;99.90
5940;DHT22;2995;-31.998;115.906;2023-01-01T16:06:00;20.20;99.90
5940;DHT22;2995;-31.998;115.906;2023-01-01T16:08:31;20.20;99.90
5940;DHT22;2995;-31.998;115.906;2023-01-01T16:11:02;20.30;99.90
5940;DHT22;2995;-31.998;115.906;2023-01-01T16:13:34;20.30;99.90
5940;DHT22;2995;-31.998;115.906;2023-01-01T16:16:22;20.40;99.90
5940;DHT22;2995;-31.998;115.906;2023-01-01T16:18:54;20.50;99.90
5940;DHT22;2995;-31.998;115.906;2023-01-01T16:21:27;20.70;99.90
5940;DHT22;2995;-31.998;115.906;2023-01-01T16:23:59;20.80;99.90
5940;DHT22;2995;-31.998;115.906;2023-01-01T16:26:31;20.80;99.90
5940;DHT22;2995;-31.998;115.906;2023-01-01T16:29:02;20.90;99.90
5940;DHT22;2995;-31.998;115.906;2023-01-01T16:31:35;20.90;99.90